Time;durP1;ratioP1;P1;durP2;ratioP2;P2;SDS_P1;SDS_P2;PMS_P1;PMS_P2;Temp;Humidity;BMP_temperature;BMP_pressure;BME280_temperature;BME280_humidity;BME280_pressure;Samples;Min_cycle;Max_cycle;Signal;HPM_P1;HPM_P2
2021/12/12 00:02:07;;;;;;;;;;;;;;;22.83;16.89;100942.47;5075111;28;19916;-70
2021/12/12 00:04:35;;;;;;;;;;;;;;;22.82;16.84;100937.28;5075080;28;19916;-70
2021/12/12 00:07:02;;;;;;;;;;;;;;;22.79;17.00;100940.53;5075147;28;19925;-70
2021/12/12 00:09:29;;;;;;;;;;;;;;;22.80;16.97;100940.28;5057371;28;19974;-70
2021/12/12 00:11:54;;;;;;;;;;;;;;;22.79;17.11;100943.25;5074943;28;19916;-70
2021/12/12 00:14:24;;;;;;;;;;;;;;;22.80;16.97;100939.44;5075238;28;19923;-71
2021/12/12 00:16:49;;;;;;;;;;;;;;;22.80;17.03;100939.44;5074933;28;20454;-71
2021/12/12 00:19:14;;;;;;;;;;;;;;;22.81;17.12;100946.53;5075020;28;19956;-71
2021/12/12 00:21:41;;;;;;;;;;;;;;;22.81;17.00;100938.34;5074929;28;20011;-71
2021/12/12 00:24:06;;;;;;;;;;;;;;;22.83;17.07;100944.38;5075865;28;20014;-72
2021/12/12 00:26:32;;;;;;;;;;;;;;;22.81;17.20;100941.91;5075259;28;20440;-70
2021/12/12 00:28:57;;;;;;;;;;;;;;;22.82;17.06;100937.28;5080415;28;19921;-70
2021/12/12 00:31:22;;;;;;;;;;;;;;;22.81;17.27;100935.63;5080324;28;19924;-70
2021/12/12 00:33:49;;;;;;;;;;;;;;;22.83;17.23;100933.47;5079602;28;19939;-70
2021/12/12 00:36:17;;;;;;;;;;;;;;;22.82;17.05;100937.28;5074524;28;19924;-70
2021/12/12 00:38:42;;;;;;;;;;;;;;;22.81;17.33;100932.91;5074424;28;19917;-70
2021/12/12 00:41:08;;;;;;;;;;;;;;;22.82;17.25;100934.56;5074565;28;19916;-70
2021/12/12 00:43:41;;;;;;;;;;;;;;;22.80;17.28;100934.81;5074612;28;19928;-70
2021/12/12 00:46:07;;;;;;;;;;;;;;;22.80;17.31;100940.28;5074049;28;20405;-70
2021/12/12 00:48:34;;;;;;;;;;;;;;;22.81;17.27;100936.44;5074621;28;19923;-70
2021/12/12 00:50:59;;;;;;;;;;;;;;;22.81;17.30;100936.44;5074419;28;20007;-70
2021/12/12 00:53:29;;;;;;;;;;;;;;;22.82;17.37;100942.75;5074339;28;20006;-70
2021/12/12 00:55:54;;;;;;;;;;;;;;;22.84;17.25;100940.56;5075050;28;20012;-71
2021/12/12 00:58:19;;;;;;;;;;;;;;;22.83;17.36;100933.47;5076558;28;19924;-71
2021/12/12 01:00:49;;;;;;;;;;;;;;;22.82;17.43;100938.09;5080209;28;19920;-71
2021/12/12 01:03:14;;;;;;;;;;;;;;;22.81;17.39;100936.44;5078349;28;19916;-71
2021/12/12 01:05:39;;;;;;;;;;;;;;;22.81;17.27;100936.44;5077757;28;19923;-71
2021/12/12 01:08:05;;;;;;;;;;;;;;;22.81;17.50;100936.44;5078340;28;20263;-71
2021/12/12 01:10:34;;;;;;;;;;;;;;;22.81;17.54;100938.34;5077931;28;19956;-71
2021/12/12 01:12:59;;;;;;;;;;;;;;;22.81;17.51;100941.09;5078626;28;19983;-69
2021/12/12 01:15:35;;;;;;;;;;;;;;;22.81;17.52;100951.97;5075740;28;19917;-71
2021/12/12 01:18:02;;;;;;;;;;;;;;;22.81;17.33;100944.63;5059202;28;19939;-71
2021/12/12 01:20:28;;;;;;;;;;;;;;;22.79;17.40;100948.69;5078501;28;19952;-71
2021/12/12 01:22:53;;;;;;;;;;;;;;;22.82;17.38;100938.09;5077944;28;20374;-71
2021/12/12 01:25:20;;;;;;;;;;;;;;;22.83;17.47;100937.00;5078100;28;20011;-71
2021/12/12 01:27:45;;;;;;;;;;;;;;;22.82;17.50;100935.38;5078034;28;19916;-71
2021/12/12 01:30:11;;;;;;;;;;;;;;;22.81;17.51;100936.44;5077587;28;19981;-71
2021/12/12 01:32:37;;;;;;;;;;;;;;;22.80;17.53;100931.25;5077963;28;19917;-71
2021/12/12 01:35:02;;;;;;;;;;;;;;;22.80;17.53;100934.81;5077690;28;19916;-71
2021/12/12 01:39:56;;;;;;;;;;;;;;;22.83;17.40;100945.19;5080130;28;19971;-71
2021/12/12 01:42:30;;;;;;;;;;;;;;;22.81;17.53;100949.25;5097642;28;19916;-71
2021/12/12 01:44:56;;;;;;;;;;;;;;;22.82;17.41;100942.75;5097817;28;19916;-70
2021/12/12 01:47:23;;;;;;;;;;;;;;;22.80;17.51;100945.72;5079771;28;19920;-71
2021/12/12 01:49:49;;;;;;;;;;;;;;;22.80;17.53;100939.44;5097582;28;19916;-71
2021/12/12 01:52:15;;;;;;;;;;;;;;;22.80;17.60;100932.09;5097387;28;19916;-71
2021/12/12 01:54:45;;;;;;;;;;;;;;;22.80;17.46;100934.81;5097528;28;19916;-71
2021/12/12 01:57:15;;;;;;;;;;;;;;;22.81;17.61;100938.34;5097656;28;20002;-71
2021/12/12 01:59:41;;;;;;;;;;;;;;;22.82;17.41;100940.00;5097406;28;19927;-71
2021/12/12 02:02:08;;;;;;;;;;;;;;;22.82;17.55;100937.28;5097618;28;19916;-71
2021/12/12 02:04:34;;;;;;;;;;;;;;;22.82;17.45;100940.00;5097466;28;19924;-71
2021/12/12 02:06:59;;;;;;;;;;;;;;;22.84;17.45;100940.56;5079403;28;19978;-71
2021/12/12 02:09:25;;;;;;;;;;;;;;;22.80;17.46;100939.44;5079268;28;20376;-71
2021/12/12 02:11:54;;;;;;;;;;;;;;;22.81;17.40;100938.34;5097306;28;20289;-71
2021/12/12 02:14:20;;;;;;;;;;;;;;;22.83;17.44;100938.91;5097501;28;19927;-71
2021/12/12 02:16:49;;;;;;;;;;;;;;;22.76;17.53;100936.41;5096853;28;20278;-71
2021/12/12 02:19:15;;;;;;;;;;;;;;;22.81;17.59;100950.06;5097251;28;19953;-71
2021/12/12 02:21:58;;;;;;;;;;;;;;;22.81;17.43;100947.34;5096817;28;19927;-71
2021/12/12 02:35:07;;;;;;;;;;;;;;;22.85;17.65;100953.09;5081603;28;19923;-71
2021/12/12 02:35:48;;;;;;;;;;;;;;;22.79;17.64;100948.69;5096840;28;19942;-71
2021/12/12 02:38:15;;;;;;;;;;;;;;;22.76;17.61;100952.75;5056135;28;20437;-71
2021/12/12 02:40:43;;;;;;;;;;;;;;;22.78;17.68;100949.75;5056323;28;19960;-71
2021/12/12 02:43:10;;;;;;;;;;;;;;;22.77;17.65;100953.59;5056319;28;19929;-71
2021/12/12 02:45:35;;;;;;;;;;;;;;;22.79;17.61;100952.25;5056361;28;19917;-71
2021/12/12 02:48:04;;;;;;;;;;;;;;;22.80;17.73;100959.34;5056422;28;19921;-71
2021/12/12 02:50:34;;;;;;;;;;;;;;;22.78;17.81;100952.50;5056533;28;20371;-71
2021/12/12 02:53:05;;;;;;;;;;;;;;;22.81;17.63;100952.78;5056375;28;19916;-71
2021/12/12 02:55:33;;;;;;;;;;;;;;;22.79;17.68;100945.97;5056059;28;20371;-71
2021/12/12 02:57:59;;;;;;;;;;;;;;;22.78;17.78;100947.03;5056347;28;20373;-71
2021/12/12 03:00:27;;;;;;;;;;;;;;;22.81;17.75;100943.81;5055864;28;19916;-71
2021/12/12 03:02:58;;;;;;;;;;;;;;;22.79;17.78;100949.50;5056649;28;20011;-71
2021/12/12 03:05:23;;;;;;;;;;;;;;;22.81;17.71;100949.25;5056198;28;20000;-71
2021/12/12 03:07:48;;;;;;;;;;;;;;;22.81;17.73;100952.78;5038080;28;20018;-71
2021/12/12 03:10:15;;;;;;;;;;;;;;;22.82;17.70;100953.66;5055803;28;19924;-71
2021/12/12 03:12:41;;;;;;;;;;;;;;;22.82;17.79;100956.38;5056008;28;20011;-71
2021/12/12 03:15:06;;;;;;;;;;;;;;;22.82;17.79;100956.38;5055953;28;19960;-71
2021/12/12 03:17:32;;;;;;;;;;;;;;;22.84;17.63;100959.66;5056599;28;19917;-70
2021/12/12 03:19:58;;;;;;;;;;;;;;;22.81;17.80;100960.97;5055662;28;19917;-70
2021/12/12 03:22:24;;;;;;;;;;;;;;;22.82;17.73;100962.63;5056089;28;19990;-70
2021/12/12 03:24:49;;;;;;;;;;;;;;;22.82;17.72;100959.09;5054521;28;20363;-70
2021/12/12 03:27:14;;;;;;;;;;;;;;;22.83;17.85;100958.00;5055640;28;19924;-70
2021/12/12 03:29:39;;;;;;;;;;;;;;;22.78;17.85;100966.94;5055881;28;19970;-70
2021/12/12 03:32:09;;;;;;;;;;;;;;;22.79;17.81;100965.84;5055479;28;19970;-70
2021/12/12 03:34:37;;;;;;;;;;;;;;;22.81;18.04;100962.88;5037460;28;19916;-70
2021/12/12 03:37:02;;;;;;;;;;;;;;;22.78;18.00;100972.38;5078525;28;19924;-70
2021/12/12 03:39:29;;;;;;;;;;;;;;;22.79;17.92;100965.03;5094951;28;19917;-70
2021/12/12 03:41:54;;;;;;;;;;;;;;;22.80;18.01;100962.06;5096037;28;19920;-70
2021/12/12 03:44:21;;;;;;;;;;;;;;;22.81;17.87;100966.41;5077859;28;20354;-70
2021/12/12 03:46:48;;;;;;;;;;;;;;;22.77;17.94;100964.47;5096214;28;20018;-70
2021/12/12 03:49:13;;;;;;;;;;;;;;;22.79;17.98;100968.59;5095247;28;20363;-70
2021/12/12 03:51:39;;;;;;;;;;;;;;;22.81;17.97;100971.06;5095691;28;20001;-70
2021/12/12 03:54:04;;;;;;;;;;;;;;;22.84;17.91;100967.84;5095435;28;19916;-71
2021/12/12 03:56:29;;;;;;;;;;;;;;;22.82;17.95;100959.09;5096069;28;19946;-70
2021/12/12 03:58:55;;;;;;;;;;;;;;;22.83;17.86;100966.16;5095405;28;19998;-70
2021/12/12 04:01:20;;;;;;;;;;;;;;;22.80;17.86;100961.22;5095379;28;20469;-70
2021/12/12 04:03:45;;;;;;;;;;;;;;;22.81;18.05;100962.88;5095276;28;19963;-70
2021/12/12 04:06:12;;;;;;;;;;;;;;;22.81;17.92;100954.72;5095001;28;20358;-70
2021/12/12 04:08:39;;;;;;;;;;;;;;;22.77;18.04;100951.69;5077008;28;20015;-70
2021/12/12 04:11:05;;;;;;;;;;;;;;;22.81;18.08;100957.44;5095531;28;19939;-70
2021/12/12 04:13:31;;;;;;;;;;;;;;;22.79;17.94;100954.16;5094777;28;19924;-70
2021/12/12 04:15:56;;;;;;;;;;;;;;;22.80;18.11;100951.16;5094807;28;19923;-71
2021/12/12 04:18:26;;;;;;;;;;;;;;;22.84;18.01;100949.56;5094892;28;19922;-71
2021/12/12 04:20:53;;;;;;;;;;;;;;;22.82;17.93;100948.19;5094649;28;19920;-71
2021/12/12 04:23:25;;;;;;;;;;;;;;;22.80;17.91;100945.72;5095205;28;19943;-71
2021/12/12 04:25:50;;;;;;;;;;;;;;;22.80;18.09;100944.88;5094334;28;19923;-71
2021/12/12 04:28:17;;;;;;;;;;;;;;;22.79;18.04;100937.81;5094298;28;20146;-71
2021/12/12 04:30:42;;;;;;;;;;;;;;;22.77;18.22;100940.78;5094515;28;19916;-71
2021/12/12 04:33:08;;;;;;;;;;;;;;;22.80;18.04;100942.16;5094658;28;19916;-71
2021/12/12 04:35:33;;;;;;;;;;;;;;;22.81;17.98;100941.09;5094842;28;20346;-71
2021/12/12 04:37:59;;;;;;;;;;;;;;;22.81;18.26;100941.09;5075562;28;19978;-71
2021/12/12 04:40:25;;;;;;;;;;;;;;;22.81;18.07;100941.09;5074236;28;19924;-71
2021/12/12 04:42:52;;;;;;;;;;;;;;;22.79;18.18;100937.81;5056343;28;19920;-71
2021/12/12 04:45:36;;;;;;;;;;;;;;;22.78;18.22;100938.88;5073825;28;19921;-71
2021/12/12 04:50:59;;;;;;;;;;;;;;;22.78;18.11;100942.41;5073922;28;20307;-71
2021/12/12 04:53:33;;;;;;;;;;;;;;;22.80;18.11;100944.88;5056146;28;19916;-71
2021/12/12 04:56:03;;;;;;;;;;;;;;;22.78;18.23;100942.41;5074043;28;19948;-71
2021/12/12 04:58:42;;;;;;;;;;;;;;;22.79;18.28;100949.50;5074150;28;20007;-71
2021/12/12 05:01:16;;;;;;;;;;;;;;;22.78;18.25;100947.84;5074350;28;19924;-71
2021/12/12 05:03:41;;;;;;;;;;;;;;;22.81;18.11;100951.97;5057033;28;19968;-71
2021/12/12 05:06:07;;;;;;;;;;;;;;;22.79;18.24;100954.16;5074515;28;19920;-71
2021/12/12 05:08:38;;;;;;;;;;;;;;;22.78;18.18;100952.50;5074535;28;19924;-71
2021/12/12 05:11:11;;;;;;;;;;;;;;;22.80;18.27;100950.31;5056520;28;19917;-71
2021/12/12 05:13:38;;;;;;;;;;;;;;;22.77;18.34;100950.88;5056848;28;20363;-71
2021/12/12 05:16:16;;;;;;;;;;;;;;;22.76;18.21;100950.00;5074462;28;20061;-71
2021/12/12 05:18:48;;;;;;;;;;;;;;;22.75;18.42;100955.72;5057370;28;19978;-71
2021/12/12 05:21:13;;;;;;;;;;;;;;;22.79;18.24;100954.97;5057315;28;19928;-70
2021/12/12 05:23:43;;;;;;;;;;;;;;;22.82;18.39;100956.38;5057067;28;19924;-71
2021/12/12 05:26:09;;;;;;;;;;;;;;;22.78;18.40;100952.50;5074434;28;19916;-71
2021/12/12 05:28:36;;;;;;;;;;;;;;;22.77;18.28;100954.41;5056682;28;20350;-70
2021/12/12 05:31:01;;;;;;;;;;;;;;;22.78;18.42;100955.22;5074538;28;19920;-70
2021/12/12 05:33:27;;;;;;;;;;;;;;;22.76;18.40;100960.09;5074475;28;19923;-70
2021/12/12 05:35:52;;;;;;;;;;;;;;;22.79;18.29;100970.50;5056981;28;19917;-70
2021/12/12 05:38:17;;;;;;;;;;;;;;;22.76;18.27;100974.53;5076065;28;19917;-70
2021/12/12 05:40:43;;;;;;;;;;;;;;;22.78;18.27;100974.28;5076855;28;19916;-70
2021/12/12 05:43:09;;;;;;;;;;;;;;;22.77;18.39;100972.66;5094643;28;20381;-70
2021/12/12 05:45:34;;;;;;;;;;;;;;;22.75;18.49;100980.25;5094994;28;19964;-70
2021/12/12 05:47:59;;;;;;;;;;;;;;;22.76;18.38;100976.44;5076378;28;20381;-70
2021/12/12 05:50:25;;;;;;;;;;;;;;;22.75;18.40;100980.25;5094186;28;20065;-71
2021/12/12 05:52:54;;;;;;;;;;;;;;;22.76;18.50;100982.72;5094565;28;20369;-71
2021/12/12 05:55:19;;;;;;;;;;;;;;;22.79;18.26;100979.47;5094344;28;19916;-71
2021/12/12 05:57:53;;;;;;;;;;;;;;;22.78;18.40;100985.19;5094456;28;19923;-71
2021/12/12 06:00:18;;;;;;;;;;;;;;;22.77;18.45;100983.56;5094615;28;19920;-70
2021/12/12 06:02:43;;;;;;;;;;;;;;;22.79;18.50;100978.66;5095541;28;19923;-70
2021/12/12 06:05:08;;;;;;;;;;;;;;;22.81;18.39;100976.50;5079829;28;19922;-70
2021/12/12 06:07:34;;;;;;;;;;;;;;;22.81;18.25;100977.31;5079935;28;19916;-70
2021/12/12 06:10:00;;;;;;;;;;;;;;;22.80;18.26;100974.84;5097727;28;20359;-70
2021/12/12 06:12:26;;;;;;;;;;;;;;;22.80;18.40;100972.97;5080067;28;19916;-70
2021/12/12 06:14:52;;;;;;;;;;;;;;;22.78;18.50;100974.28;5079934;28;20437;-70
2021/12/12 06:17:17;;;;;;;;;;;;;;;22.79;18.47;100975.94;5097844;28;19939;-70
2021/12/12 06:19:43;;;;;;;;;;;;;;;22.79;18.49;100967.78;5079752;28;20373;-70
2021/12/12 06:22:08;;;;;;;;;;;;;;;22.78;18.29;100963.38;5079206;28;20251;-70
2021/12/12 06:24:34;;;;;;;;;;;;;;;22.78;18.49;100961.47;5097539;28;20366;-70
2021/12/12 06:27:17;;;;;;;;;;;;;;;22.80;18.46;100966.66;5080583;28;19920;-70
2021/12/12 06:29:44;;;;;;;;;;;;;;;22.79;18.50;100965.03;5097701;28;19916;-70
2021/12/12 06:32:09;;;;;;;;;;;;;;;22.78;18.48;100969.66;5097559;28;20349;-70
2021/12/12 06:34:35;;;;;;;;;;;;;;;22.79;18.48;100970.50;5098479;28;19916;-70
2021/12/12 06:37:00;;;;;;;;;;;;;;;22.81;18.45;100973.78;5088528;28;20366;-70
2021/12/12 06:39:25;;;;;;;;;;;;;;;22.79;18.35;100968.59;5077515;28;20305;-70
2021/12/12 06:41:51;;;;;;;;;;;;;;;22.82;18.35;100967.28;5077406;28;20457;-70
2021/12/12 06:44:16;;;;;;;;;;;;;;;22.77;18.54;100972.66;5059385;28;20282;-70
2021/12/12 06:46:42;;;;;;;;;;;;;;;22.76;18.35;100973.72;5077386;28;19927;-71
2021/12/12 06:49:07;;;;;;;;;;;;;;;22.78;18.53;100966.13;5077461;28;20433;-71
2021/12/12 06:51:34;;;;;;;;;;;;;;;22.80;18.42;100962.06;5076877;28;20389;-71
2021/12/12 06:53:59;;;;;;;;;;;;;;;22.78;18.35;100968.84;5077170;28;20046;-71
2021/12/12 06:56:24;;;;;;;;;;;;;;;22.80;18.46;100962.06;5059428;28;20004;-71
2021/12/12 06:58:51;;;;;;;;;;;;;;;22.79;18.45;100971.31;5059391;28;19924;-71
2021/12/12 07:01:17;;;;;;;;;;;;;;;22.79;18.53;100973.22;5076571;28;20003;-71
2021/12/12 07:03:43;;;;;;;;;;;;;;;22.79;18.55;100981.41;5077072;28;20290;-71
2021/12/12 07:06:08;;;;;;;;;;;;;;;22.78;18.43;100979.72;5077423;28;19928;-71
2021/12/12 07:08:34;;;;;;;;;;;;;;;22.77;18.54;100980.84;5076850;28;19923;-71
2021/12/12 07:10:59;;;;;;;;;;;;;;;22.76;18.50;100988.16;5077568;28;20236;-71
2021/12/12 07:13:24;;;;;;;;;;;;;;;22.79;18.55;100981.41;5058525;28;19997;-71
2021/12/12 07:15:50;;;;;;;;;;;;;;;22.77;18.49;100991.72;5075575;28;19917;-71
2021/12/12 07:18:16;;;;;;;;;;;;;;;22.78;18.34;100986.00;5076632;28;19923;-71
2021/12/12 07:20:42;;;;;;;;;;;;;;;22.76;18.59;100993.63;5076821;28;19921;-71
2021/12/12 07:23:07;;;;;;;;;;;;;;;22.75;18.44;100997.44;5076042;28;19921;-71
2021/12/12 07:25:33;;;;;;;;;;;;;;;22.80;18.49;100994.78;5076194;28;19917;-71
2021/12/12 07:28:00;;;;;;;;;;;;;;;22.76;18.55;100992.78;5076450;28;19966;-71
2021/12/12 07:30:25;;;;;;;;;;;;;;;22.78;18.39;100990.63;5075903;28;20476;-71
2021/12/12 07:32:50;;;;;;;;;;;;;;;22.78;18.58;101002.34;5058172;28;20002;-71
2021/12/12 07:35:15;;;;;;;;;;;;;;;22.76;18.59;100992.78;5076002;28;20391;-71
2021/12/12 07:37:41;;;;;;;;;;;;;;;22.76;18.39;100992.78;5090219;28;19920;-71
2021/12/12 07:40:07;;;;;;;;;;;;;;;22.77;18.59;100999.91;5095962;28;20381;-71
2021/12/12 07:42:32;;;;;;;;;;;;;;;22.78;18.40;100996.09;5095837;28;19920;-70
2021/12/12 07:44:58;;;;;;;;;;;;;;;22.74;18.49;100994.97;5096368;28;19920;-70
2021/12/12 07:47:23;;;;;;;;;;;;;;;22.76;18.59;100998.25;5077651;28;20002;-70
2021/12/12 07:49:48;;;;;;;;;;;;;;;22.75;18.75;100999.31;5095805;28;19916;-70
2021/12/12 07:52:15;;;;;;;;;;;;;;;22.75;18.62;101002.03;5078292;28;19916;-70
2021/12/12 07:54:40;;;;;;;;;;;;;;;22.76;18.40;101004.50;5077933;28;20312;-70
2021/12/12 07:57:06;;;;;;;;;;;;;;;22.75;18.64;101004.75;5095736;28;19959;-70
2021/12/12 07:59:31;;;;;;;;;;;;;;;22.74;18.64;101005.84;5095955;28;20055;-70
2021/12/12 08:01:57;;;;;;;;;;;;;;;22.78;18.67;101001.53;5096188;28;20282;-70
2021/12/12 08:04:24;;;;;;;;;;;;;;;22.80;18.65;100997.50;5096305;28;19985;-70
2021/12/12 08:06:50;;;;;;;;;;;;;;;22.76;18.48;101000.97;5097328;28;19939;-70
2021/12/12 08:09:15;;;;;;;;;;;;;;;22.73;18.69;100993.28;5079140;28;20347;-70
2021/12/12 08:11:40;;;;;;;;;;;;;;;22.74;18.61;100998.50;5077609;28;19920;-70
2021/12/12 08:14:06;;;;;;;;;;;;;;;22.77;18.41;101002.63;5095947;28;19916;-70
2021/12/12 08:16:32;;;;;;;;;;;;;;;22.77;18.56;101000.72;5096697;28;19924;-70
2021/12/12 08:18:57;;;;;;;;;;;;;;;22.76;18.64;100992.78;5077752;28;19961;-70
2021/12/12 08:21:22;;;;;;;;;;;;;;;22.78;18.58;100990.63;5077079;28;20007;-70
2021/12/12 08:23:47;;;;;;;;;;;;;;;22.80;18.61;100994.78;5095645;28;19923;-70
2021/12/12 08:26:13;;;;;;;;;;;;;;;22.76;18.47;100988.16;5095389;28;19923;-70
2021/12/12 08:28:38;;;;;;;;;;;;;;;22.77;18.66;100987.09;5096691;28;19923;-70
2021/12/12 08:31:04;;;;;;;;;;;;;;;22.79;18.42;100986.84;5077548;28;20060;-70
2021/12/12 08:33:29;;;;;;;;;;;;;;;22.77;18.55;100983.56;5095308;28;19939;-70
2021/12/12 08:35:54;;;;;;;;;;;;;;;22.75;18.57;100986.53;5077389;28;20278;-70
2021/12/12 08:38:19;;;;;;;;;;;;;;;22.76;18.59;100990.06;5076465;28;19939;-70
2021/12/12 08:40:47;;;;;;;;;;;;;;;22.77;18.53;100991.72;5074982;28;20393;-70
2021/12/12 08:43:14;;;;;;;;;;;;;;;22.75;18.73;100991.13;5075509;28;19970;-70
2021/12/12 08:45:49;;;;;;;;;;;;;;;22.75;18.61;100996.59;5075103;28;19920;-70
2021/12/12 08:48:16;;;;;;;;;;;;;;;22.77;18.69;101006.16;5074831;28;19938;-70
2021/12/12 08:50:41;;;;;;;;;;;;;;;22.78;18.58;101002.34;5056997;28;19956;-70
2021/12/12 08:53:07;;;;;;;;;;;;;;;22.80;18.60;101000.22;5075098;28;19916;-70
2021/12/12 08:55:36;;;;;;;;;;;;;;;22.77;18.75;101005.34;5075324;28;20007;-70
2021/12/12 08:58:13;;;;;;;;;;;;;;;22.79;18.61;100997.75;5074963;28;19916;-70
2021/12/12 09:00:39;;;;;;;;;;;;;;;22.77;18.70;101000.72;5076012;28;20073;-70
2021/12/12 09:03:05;;;;;;;;;;;;;;;22.78;18.76;100994.19;5074648;28;19918;-70
2021/12/12 09:05:31;;;;;;;;;;;;;;;22.77;18.65;100984.38;5075276;28;20005;-70
2021/12/12 09:07:57;;;;;;;;;;;;;;;22.77;18.76;100987.09;5075480;28;19916;-70
2021/12/12 09:10:43;;;;;;;;;;;;;;;22.75;18.61;100985.69;5057396;28;19916;-70
2021/12/12 09:13:11;;;;;;;;;;;;;;;22.73;18.71;100977.75;5074180;28;19959;-70
2021/12/12 09:15:41;;;;;;;;;;;;;;;22.73;18.82;100982.41;5074873;28;19962;-70
2021/12/12 09:18:32;;;;;;;;;;;;;;;22.76;18.73;100981.91;5075872;28;19917;-70
2021/12/12 09:20:59;;;;;;;;;;;;;;;22.74;18.71;100984.06;5071256;28;19917;-70
2021/12/12 09:23:25;;;;;;;;;;;;;;;22.73;18.77;100977.75;5056663;28;20390;-70
2021/12/12 09:25:53;;;;;;;;;;;;;;;22.74;18.79;100990.31;5056641;28;20007;-71
2021/12/12 09:28:30;;;;;;;;;;;;;;;22.77;18.80;100983.56;5057051;28;19920;-71
2021/12/12 09:30:56;;;;;;;;;;;;;;;22.76;18.69;100980.00;5074689;28;19927;-71
2021/12/12 09:33:23;;;;;;;;;;;;;;;22.75;18.64;100980.25;5074912;28;19990;-70
2021/12/12 09:35:54;;;;;;;;;;;;;;;22.76;18.73;100977.25;5075005;28;20283;-70
2021/12/12 09:38:23;;;;;;;;;;;;;;;22.73;18.83;100976.94;5094552;28;20378;-70
2021/12/12 09:41:08;;;;;;;;;;;;;;;22.75;18.73;100982.97;5081423;28;19923;-70
2021/12/12 09:43:42;;;;;;;;;;;;;;;22.75;18.76;100985.69;5098813;28;19920;-70
2021/12/12 09:46:19;;;;;;;;;;;;;;;22.75;18.80;100982.97;5098858;28;19978;-70
2021/12/12 09:51:44;;;;;;;;;;;;;;;22.69;18.76;100982.91;5098903;28;20069;-70
2021/12/12 09:54:17;;;;;;;;;;;;;;;22.71;18.71;100977.19;5098995;28;20014;-70
2021/12/12 09:56:57;;;;;;;;;;;;;;;22.77;18.86;100975.38;5099016;28;19939;-70
2021/12/12 09:59:41;;;;;;;;;;;;;;;22.76;18.75;100971.00;5098584;28;19920;-70
2021/12/12 10:02:25;;;;;;;;;;;;;;;22.76;18.82;100971.81;5098107;28;19916;-70
2021/12/12 10:04:54;;;;;;;;;;;;;;;22.78;18.80;100969.66;5098087;28;19916;-70
2021/12/12 10:07:19;;;;;;;;;;;;;;;22.75;18.89;100969.34;5080016;28;19917;-70
2021/12/12 10:09:48;;;;;;;;;;;;;;;22.75;18.79;100972.91;5097784;28;19979;-70
2021/12/12 10:12:13;;;;;;;;;;;;;;;22.77;18.65;100978.09;5097894;28;19935;-70
2021/12/12 10:14:52;;;;;;;;;;;;;;;22.75;18.71;100978.34;5097513;28;19916;-70
2021/12/12 10:17:22;;;;;;;;;;;;;;;22.74;18.83;100978.59;5079726;28;20397;-70
2021/12/12 10:19:49;;;;;;;;;;;;;;;22.75;18.83;100969.34;5079389;28;19951;-70
2021/12/12 10:22:40;;;;;;;;;;;;;;;22.74;18.70;100981.34;5097214;28;20285;-70
2021/12/12 10:25:26;;;;;;;;;;;;;;;22.72;18.82;100981.59;5014941;28;20008;-70
2021/12/12 10:27:59;;;;;;;;;;;;;;;22.75;18.74;100982.97;5015066;28;19921;-70
2021/12/12 10:30:25;;;;;;;;;;;;;;;22.74;18.75;100986.78;4998596;28;20391;-70
2021/12/12 10:32:54;;;;;;;;;;;;;;;22.77;18.88;100989.00;5015035;28;19918;-70
2021/12/12 10:35:21;;;;;;;;;;;;;;;22.74;18.91;100984.06;5015117;28;19917;-70
2021/12/12 10:37:47;;;;;;;;;;;;;;;22.73;18.92;100974.22;5014609;28;19924;-70
2021/12/12 10:40:22;;;;;;;;;;;;;;;22.72;18.84;100976.13;5014677;28;19917;-70
2021/12/12 10:42:49;;;;;;;;;;;;;;;22.72;18.92;100972.59;5014560;28;20396;-70
2021/12/12 10:45:21;;;;;;;;;;;;;;;22.76;18.82;100973.72;5015077;28;19921;-70
2021/12/12 10:47:54;;;;;;;;;;;;;;;22.74;18.89;100981.34;5014918;28;20048;-70
2021/12/12 10:50:22;;;;;;;;;;;;;;;22.72;18.83;100976.13;4997947;28;19917;-70
2021/12/12 10:53:05;;;;;;;;;;;;;;;22.75;18.75;100980.25;5014548;28;20372;-70
2021/12/12 10:55:49;;;;;;;;;;;;;;;22.73;18.90;100987.84;5014703;28;19969;-70
2021/12/12 10:58:42;;;;;;;;;;;;;;;22.72;18.91;100987.03;5014501;28;19921;-70
2021/12/12 11:01:12;;;;;;;;;;;;;;;22.73;18.90;100996.03;5023415;28;20003;-70
2021/12/12 11:03:49;;;;;;;;;;;;;;;22.73;18.82;100999.56;5077297;28;19971;-70
2021/12/12 11:06:16;;;;;;;;;;;;;;;22.75;18.74;100985.69;5077010;28;19916;-70
2021/12/12 11:08:41;;;;;;;;;;;;;;;22.73;18.89;100982.41;5076696;28;19917;-70
2021/12/12 11:11:12;;;;;;;;;;;;;;;22.74;18.95;100975.88;5076349;28;20359;-70
2021/12/12 11:13:42;;;;;;;;;;;;;;;22.77;18.94;100978.09;5076240;28;19944;-71
2021/12/12 11:16:39;;;;;;;;;;;;;;;22.76;18.82;100979.19;5076724;28;19916;-71
2021/12/12 11:19:13;;;;;;;;;;;;;;;22.77;18.81;100981.66;4994774;28;20021;-71
2021/12/12 11:21:43;;;;;;;;;;;;;;;22.76;18.70;100974.53;4994409;28;20372;-70
2021/12/12 11:24:11;;;;;;;;;;;;;;;22.73;18.81;100980.50;4994643;28;19960;-70
2021/12/12 11:26:40;;;;;;;;;;;;;;;22.75;18.80;100970.19;4994738;28;19917;-70
2021/12/12 11:29:25;;;;;;;;;;;;;;;22.73;18.91;100966.06;4978706;28;20360;-70
2021/12/12 11:31:54;;;;;;;;;;;;;;;22.73;18.98;100972.31;4978635;28;19918;-70
2021/12/12 11:34:21;;;;;;;;;;;;;;;22.77;18.89;100975.38;4994814;28;19940;-70
2021/12/12 11:36:46;;;;;;;;;;;;;;;22.74;18.84;100970.44;4980930;28;19918;-70
2021/12/12 11:39:14;;;;;;;;;;;;;;;22.72;18.91;100975.31;4999213;28;19992;-70
2021/12/12 11:41:53;;;;;;;;;;;;;;;22.74;18.79;100978.59;4999126;28;19918;-70
2021/12/12 11:44:23;;;;;;;;;;;;;;;22.78;18.92;100982.47;4979391;28;20004;-70
2021/12/12 11:46:52;;;;;;;;;;;;;;;22.73;18.95;100985.13;4994501;28;19926;-70
2021/12/12 11:49:20;;;;;;;;;;;;;;;22.73;18.84;100982.41;4994330;28;19949;-70
2021/12/12 11:51:49;;;;;;;;;;;;;;;22.73;18.85;100977.75;4994072;28;20029;-70
2021/12/12 11:54:33;;;;;;;;;;;;;;;22.75;18.94;100972.06;4994975;28;20048;-70
2021/12/12 11:57:10;;;;;;;;;;;;;;;22.76;18.82;100971.81;5035166;28;20297;-70
2021/12/12 11:59:39;;;;;;;;;;;;;;;22.75;18.84;100970.19;5036030;28;19944;-70
2021/12/12 12:02:20;;;;;;;;;;;;;;;22.74;18.88;100973.16;5050091;28;19917;-70
2021/12/12 12:04:54;;;;;;;;;;;;;;;22.74;18.84;100967.72;5035003;28;19953;-70
2021/12/12 12:07:38;;;;;;;;;;;;;;;22.72;19.00;100959.78;5038482;28;20375;-70
2021/12/12 12:10:06;;;;;;;;;;;;;;;22.72;18.84;100958.97;5038042;28;19963;-70
2021/12/12 12:12:50;;;;;;;;;;;;;;;22.76;18.83;100957.38;5036876;28;19928;-70
2021/12/12 12:15:18;;;;;;;;;;;;;;;22.75;18.91;100963.88;5037758;28;19963;-70
2021/12/12 12:17:47;;;;;;;;;;;;;;;22.74;18.97;100965.00;5037715;28;19961;-70
2021/12/12 12:20:31;;;;;;;;;;;;;;;22.72;18.98;100959.78;5052307;28;19917;-70
2021/12/12 12:23:03;;;;;;;;;;;;;;;22.73;18.96;100960.59;5053927;28;20334;-70
2021/12/12 12:25:30;;;;;;;;;;;;;;;22.72;19.03;100970.69;5054871;28;19994;-70
2021/12/12 12:27:57;;;;;;;;;;;;;;;22.71;19.05;100973.66;5054896;28;20422;-70
2021/12/12 12:30:31;;;;;;;;;;;;;;;22.73;19.02;100974.22;5054388;28;19999;-70
2021/12/12 12:33:15;;;;;;;;;;;;;;;22.74;18.94;100978.59;5054732;28;20007;-70
2021/12/12 12:36:03;;;;;;;;;;;;;;;22.73;18.88;100972.31;5054320;28;19917;-70
2021/12/12 12:38:47;;;;;;;;;;;;;;;22.72;18.91;100976.13;5068741;28;20007;-70
2021/12/12 12:41:31;;;;;;;;;;;;;;;22.73;18.96;100982.41;5094703;28;19952;-70
2021/12/12 12:44:15;;;;;;;;;;;;;;;22.73;19.03;100971.50;5094749;28;19931;-70
2021/12/12 12:46:58;;;;;;;;;;;;;;;22.72;18.98;100978.84;5095209;28;20339;-70
2021/12/12 12:49:56;;;;;;;;;;;;;;;22.72;19.00;100980.78;5094769;28;20366;-70
2021/12/12 12:52:29;;;;;;;;;;;;;;;22.74;19.01;100989.50;5094286;28;19950;-70
2021/12/12 12:55:12;;;;;;;;;;;;;;;22.75;18.96;100985.69;5076840;28;19916;-70
2021/12/12 12:57:38;;;;;;;;;;;;;;;22.75;18.93;100981.09;5094925;28;19938;-70
2021/12/12 13:00:06;;;;;;;;;;;;;;;22.76;18.89;100979.19;5094770;28;20392;-70
2021/12/12 13:02:50;;;;;;;;;;;;;;;22.74;18.98;100981.34;5094952;28;19927;-70